createdAt,value
2017-12-03T00:01:43.087Z,5.80
2017-12-03T00:04:12.055Z,6.27
2017-12-03T00:06:41.653Z,5.43
2017-12-03T00:09:18.399Z,5.10
2017-12-03T00:11:50.379Z,5.70
2017-12-03T00:14:20.213Z,5.50
2017-12-03T00:16:50.895Z,4.93
2017-12-03T00:19:21.220Z,5.00
2017-12-03T00:21:52.034Z,5.17
2017-12-03T00:24:26.319Z,5.43
2017-12-03T00:26:57.296Z,3.80
2017-12-03T00:29:43.430Z,7.00
2017-12-03T00:32:15.900Z,5.10
2017-12-03T00:37:26.416Z,4.60
2017-12-03T00:39:56.499Z,4.50
2017-12-03T00:42:26.389Z,5.37
2017-12-03T00:44:54.376Z,4.47
2017-12-03T00:47:28.604Z,5.30
2017-12-03T00:49:58.952Z,5.20
2017-12-03T00:52:32.274Z,4.60
2017-12-03T00:55:01.975Z,4.63
2017-12-03T00:57:31.245Z,5.57
2017-12-03T01:00:04.888Z,7.50
2017-12-03T01:02:36.995Z,8.07
2017-12-03T01:05:10.890Z,6.93
2017-12-03T01:07:40.337Z,5.87
2017-12-03T01:10:10.354Z,6.20
2017-12-03T01:12:42.211Z,6.40
2017-12-03T01:15:10.780Z,7.57
2017-12-03T01:20:21.448Z,5.30
2017-12-03T01:22:51.305Z,6.27
2017-12-03T01:25:21.284Z,6.03
2017-12-03T01:27:50.968Z,5.70
2017-12-03T01:30:19.789Z,5.97
2017-12-03T01:32:49.336Z,5.33
2017-12-03T01:35:17.327Z,4.33
2017-12-03T01:37:51.110Z,5.90
2017-12-03T01:40:24.674Z,7.10
2017-12-03T01:42:55.802Z,6.57
2017-12-03T01:45:27.229Z,5.60
2017-12-03T01:47:54.681Z,5.67
2017-12-03T01:50:25.318Z,7.33
2017-12-03T01:52:56.028Z,7.97
2017-12-03T01:55:26.840Z,6.50
2017-12-03T01:57:56.158Z,7.30
2017-12-03T02:00:25.134Z,8.10
2017-12-03T02:05:28.284Z,5.53
2017-12-03T02:07:58.418Z,5.50
2017-12-03T02:10:27.614Z,5.37
2017-12-03T02:12:58.217Z,5.07
2017-12-03T02:15:27.116Z,6.77
2017-12-03T02:17:58.072Z,6.20
2017-12-03T02:20:29.416Z,5.87
2017-12-03T02:22:58.437Z,5.00
2017-12-03T02:25:26.740Z,6.73
2017-12-03T02:27:58.474Z,6.50
2017-12-03T02:30:25.936Z,5.40
2017-12-03T02:32:54.336Z,6.90
2017-12-03T02:35:24.594Z,8.07
2017-12-03T02:37:52.425Z,6.93
2017-12-03T02:40:22.750Z,7.30
2017-12-03T02:42:51.117Z,5.70
2017-12-03T02:45:24.882Z,7.53
2017-12-03T02:47:54.656Z,5.90
2017-12-03T02:50:25.153Z,6.47
2017-12-03T02:52:54.126Z,6.43
2017-12-03T02:55:28.326Z,7.10
2017-12-03T02:57:57.222Z,5.57
2017-12-03T03:00:29.633Z,6.10
2017-12-03T03:02:58.794Z,5.07
2017-12-03T03:05:28.291Z,6.03
2017-12-03T03:07:56.320Z,5.80
2017-12-03T03:10:27.817Z,8.80
2017-12-03T03:12:56.032Z,9.13
2017-12-03T03:15:33.603Z,8.27
2017-12-03T03:18:02.569Z,6.57
2017-12-03T03:20:32.974Z,5.90
2017-12-03T03:23:05.581Z,4.43
2017-12-03T03:25:34.816Z,5.70
2017-12-03T03:28:11.921Z,6.03
2017-12-03T03:30:41.359Z,5.53
2017-12-03T03:33:08.804Z,4.63
2017-12-03T03:35:37.908Z,5.47
2017-12-03T03:38:05.353Z,5.70
2017-12-03T03:40:35.499Z,5.40
2017-12-03T03:43:06.263Z,6.33
2017-12-03T03:45:37.990Z,5.83
2017-12-03T03:48:07.026Z,5.07
2017-12-03T03:50:41.762Z,5.70
2017-12-03T03:53:14.024Z,5.60
2017-12-03T03:55:41.470Z,4.73
2017-12-03T03:58:11.594Z,4.20
2017-12-03T04:00:42.840Z,4.37
2017-12-03T04:03:14.681Z,4.43
2017-12-03T04:05:42.872Z,4.27
2017-12-03T04:08:30.136Z,4.90
2017-12-03T04:10:59.645Z,3.90
2017-12-03T04:13:30.664Z,5.20
2017-12-03T04:15:59.146Z,7.10
2017-12-03T04:18:26.590Z,6.50
2017-12-03T04:20:55.669Z,6.90
2017-12-03T04:23:27.557Z,7.00
2017-12-03T04:25:57.203Z,7.87
2017-12-03T04:28:27.324Z,8.30
2017-12-03T04:30:57.377Z,8.63
2017-12-03T04:33:29.153Z,7.60
2017-12-03T04:35:56.941Z,7.77
2017-12-03T04:41:15.543Z,7.63
2017-12-03T04:43:43.973Z,7.17
2017-12-03T04:46:12.793Z,7.00
2017-12-03T04:48:41.632Z,6.50
2017-12-03T04:51:13.134Z,6.27
2017-12-03T04:53:43.627Z,6.00
2017-12-03T04:56:11.898Z,7.30
2017-12-03T04:58:44.559Z,7.50
2017-12-03T05:01:12.550Z,7.30
2017-12-03T05:03:42.398Z,7.17
2017-12-03T05:06:11.809Z,7.87
2017-12-03T05:08:40.471Z,8.73
2017-12-03T05:11:13.397Z,7.80
2017-12-03T05:13:43.588Z,7.30
2017-12-03T05:16:11.060Z,6.73
2017-12-03T05:18:41.000Z,7.60
2017-12-03T05:21:11.440Z,7.30
2017-12-03T05:23:41.178Z,6.50
2017-12-03T05:26:08.630Z,5.20
2017-12-03T05:28:40.978Z,6.50
2017-12-03T05:33:49.371Z,5.67
2017-12-03T05:38:52.943Z,6.50
2017-12-03T05:41:22.007Z,8.20
2017-12-03T05:43:50.368Z,6.33
2017-12-03T05:46:20.824Z,6.97
2017-12-03T05:48:49.530Z,7.60
2017-12-03T05:51:16.990Z,7.40
2017-12-03T05:53:46.831Z,7.23
2017-12-03T05:56:14.310Z,9.60
2017-12-03T05:58:45.757Z,8.40
2017-12-03T06:01:15.378Z,9.60
2017-12-03T06:03:48.500Z,8.30
2017-12-03T06:06:17.601Z,8.20
2017-12-03T06:08:47.731Z,8.97
2017-12-03T06:11:16.542Z,8.63
2017-12-03T06:13:46.358Z,7.07
2017-12-03T06:16:18.858Z,6.43
2017-12-03T06:18:50.974Z,6.07
2017-12-03T06:21:20.222Z,7.50
2017-12-03T06:23:49.268Z,8.80
2017-12-03T06:26:18.117Z,10.00
2017-12-03T06:28:46.892Z,9.83
2017-12-03T06:31:16.421Z,8.20
2017-12-03T06:33:47.333Z,8.47
2017-12-03T06:36:20.036Z,8.10
2017-12-03T06:41:24.863Z,8.10
2017-12-03T06:43:54.478Z,10.13
2017-12-03T06:46:25.867Z,9.37
2017-12-03T06:48:54.517Z,9.13
2017-12-03T06:51:23.273Z,6.87
2017-12-03T06:53:52.941Z,9.17
2017-12-03T06:56:25.948Z,8.70
2017-12-03T06:58:54.555Z,7.60
2017-12-03T07:01:23.651Z,8.67
2017-12-03T07:03:54.966Z,7.80
2017-12-03T07:06:28.859Z,9.53
2017-12-03T07:08:58.944Z,8.97
2017-12-03T07:11:33.618Z,7.70
2017-12-03T07:14:03.460Z,8.80
2017-12-03T07:22:03.300Z,8.90
2017-12-03T07:24:34.702Z,9.07
2017-12-03T07:27:03.274Z,8.87
2017-12-03T07:29:34.244Z,9.60
2017-12-03T07:32:04.826Z,9.40
2017-12-03T07:34:33.390Z,11.47
2017-12-03T07:37:06.156Z,10.07
2017-12-03T07:39:35.861Z,8.67
2017-12-03T07:42:04.320Z,9.67
2017-12-03T07:44:34.301Z,9.70
2017-12-03T07:47:08.496Z,10.60
2017-12-03T07:49:37.178Z,9.93
2017-12-03T07:52:08.075Z,9.23
2017-12-03T07:54:35.870Z,9.40
2017-12-03T07:57:04.276Z,10.47
2017-12-03T07:59:35.254Z,10.80
2017-12-03T08:02:04.438Z,8.90
2017-12-03T08:04:31.914Z,9.47
2017-12-03T08:07:04.799Z,8.60
2017-12-03T08:09:37.357Z,9.77
2017-12-03T08:12:05.163Z,8.60
2017-12-03T08:14:35.467Z,8.53
2017-12-03T08:17:04.356Z,7.80
2017-12-03T08:19:34.270Z,7.97
2017-12-03T08:22:02.910Z,8.03
2017-12-03T08:24:31.200Z,9.00
2017-12-03T08:27:02.077Z,9.53
2017-12-03T08:29:29.714Z,8.47
2017-12-03T08:31:59.272Z,11.43
2017-12-03T08:34:30.215Z,7.53
2017-12-03T08:37:00.278Z,11.83
2017-12-03T08:39:33.867Z,7.80
2017-12-03T08:42:02.543Z,10.93
2017-12-03T08:44:33.446Z,11.63
2017-12-03T08:47:00.904Z,10.03
2017-12-03T08:49:29.841Z,8.17
2017-12-03T08:51:58.186Z,6.90
2017-12-03T08:54:28.062Z,7.30
2017-12-03T08:56:57.805Z,5.97
2017-12-03T08:59:27.188Z,6.70
2017-12-03T09:02:00.340Z,7.13
2017-12-03T09:04:29.584Z,7.07
2017-12-03T09:06:57.542Z,5.83
2017-12-03T09:09:25.720Z,5.97
2017-12-03T09:12:00.409Z,5.30
2017-12-03T09:14:29.582Z,4.70
2017-12-03T09:16:57.207Z,5.20
2017-12-03T09:19:25.211Z,5.30
2017-12-03T09:21:54.156Z,5.53
2017-12-03T09:24:23.328Z,8.27
2017-12-03T09:26:52.521Z,5.60
2017-12-03T09:29:21.871Z,6.47
2017-12-03T09:31:53.575Z,4.90
2017-12-03T09:34:22.211Z,4.63
2017-12-03T09:36:52.143Z,5.67
2017-12-03T09:39:22.194Z,5.97
2017-12-03T09:41:53.397Z,6.57
2017-12-03T09:44:24.282Z,6.50
2017-12-03T09:46:53.154Z,6.90
2017-12-03T09:49:23.136Z,8.20
2017-12-03T09:51:54.101Z,7.73
2017-12-03T09:54:26.081Z,6.93
2017-12-03T09:56:53.515Z,8.50
2017-12-03T09:59:23.424Z,6.80
2017-12-03T10:01:57.157Z,7.07
2017-12-03T10:04:26.959Z,7.30
2017-12-03T10:06:56.658Z,7.80
2017-12-03T10:09:33.981Z,5.80
2017-12-03T10:12:06.771Z,5.97
2017-12-03T10:14:36.563Z,7.33
2017-12-03T10:17:06.487Z,7.50
2017-12-03T10:19:45.685Z,10.57
2017-12-03T10:22:18.934Z,6.70
2017-12-03T10:24:46.963Z,7.20
2017-12-03T10:27:20.122Z,6.57
2017-12-03T10:29:50.281Z,7.90
2017-12-03T10:32:19.585Z,8.40
2017-12-03T10:34:49.454Z,6.83
2017-12-03T10:37:21.476Z,6.57
2017-12-03T10:39:51.540Z,6.33
2017-12-03T10:42:19.036Z,5.90
2017-12-03T10:44:49.116Z,5.83
2017-12-03T10:47:17.129Z,5.40
2017-12-03T10:49:48.589Z,4.83
2017-12-03T10:52:18.897Z,5.10
2017-12-03T10:54:47.282Z,5.50
2017-12-03T10:57:22.516Z,6.23
2017-12-03T10:59:51.480Z,6.93
2017-12-03T11:02:21.627Z,6.57
2017-12-03T11:04:50.821Z,4.00
2017-12-03T11:07:18.622Z,5.00
2017-12-03T11:09:50.496Z,5.10
2017-12-03T11:14:59.250Z,4.90
2017-12-03T11:17:27.667Z,5.03
2017-12-03T11:19:56.598Z,5.57
2017-12-03T11:22:26.882Z,6.23
2017-12-03T11:24:56.085Z,6.13
2017-12-03T11:27:25.034Z,6.40
2017-12-03T11:29:53.659Z,6.57
2017-12-03T11:32:23.782Z,6.07
2017-12-03T11:34:52.137Z,5.43
2017-12-03T11:37:21.764Z,5.50
2017-12-03T11:39:52.208Z,5.17
2017-12-03T11:42:25.249Z,5.10
2017-12-03T11:44:55.466Z,6.90
2017-12-03T11:47:25.616Z,7.33
2017-12-03T11:49:56.179Z,5.83
2017-12-03T11:52:27.186Z,6.03
2017-12-03T11:54:56.205Z,4.37
2017-12-03T11:57:27.024Z,4.97
2017-12-03T11:59:57.599Z,4.70
2017-12-03T12:05:05.057Z,5.47
2017-12-03T12:07:35.964Z,5.50
2017-12-03T12:10:06.242Z,4.93
2017-12-03T12:12:36.135Z,5.63
2017-12-03T12:15:04.710Z,4.93
2017-12-03T12:17:33.200Z,5.30
2017-12-03T12:20:04.069Z,5.23
2017-12-03T12:22:35.296Z,4.50
2017-12-03T12:25:03.741Z,24.30
2017-12-03T12:27:35.720Z,26.83
2017-12-03T12:32:36.471Z,4.80
2017-12-03T12:35:05.119Z,7.00
2017-12-03T12:37:36.971Z,5.50
2017-12-03T12:40:04.407Z,4.50
2017-12-03T12:42:33.390Z,4.13
2017-12-03T12:45:03.945Z,5.87
2017-12-03T12:47:33.587Z,3.83
2017-12-03T12:50:03.689Z,6.20
2017-12-03T12:52:33.536Z,5.97
2017-12-03T12:57:54.109Z,7.40
2017-12-03T13:00:23.193Z,4.80
2017-12-03T13:02:52.857Z,5.10
2017-12-03T13:05:23.637Z,5.00
2017-12-03T13:08:08.401Z,7.90
2017-12-03T13:10:37.819Z,5.40
2017-12-03T13:13:07.056Z,5.63
2017-12-03T13:15:36.731Z,6.07
2017-12-03T13:18:09.847Z,5.93
2017-12-03T13:23:13.371Z,5.73
2017-12-03T13:34:21.366Z,6.57
2017-12-03T13:36:48.781Z,6.70
2017-12-03T13:39:16.200Z,7.60
2017-12-03T13:44:25.461Z,6.60
2017-12-03T13:49:43.538Z,8.43
2017-12-03T13:55:01.593Z,5.93
2017-12-03T13:57:29.051Z,6.30
2017-12-03T13:59:56.465Z,6.57
2017-12-03T14:02:24.642Z,5.77
2017-12-03T14:04:52.946Z,5.60
2017-12-03T14:07:20.350Z,6.40
2017-12-03T14:09:47.762Z,6.47
2017-12-03T14:12:15.181Z,5.80
2017-12-03T14:14:43.349Z,7.20
2017-12-03T14:17:11.534Z,5.80
2017-12-03T14:19:39.744Z,5.70
2017-12-03T14:22:07.153Z,5.10
2017-12-03T14:24:34.561Z,5.93
2017-12-03T14:27:01.973Z,5.07
2017-12-03T14:29:29.378Z,6.43
2017-12-03T14:31:56.798Z,5.87
2017-12-03T14:34:24.974Z,4.90
2017-12-03T14:36:52.373Z,5.30
2017-12-03T14:39:19.784Z,4.87
2017-12-03T14:41:47.262Z,5.10
2017-12-03T14:44:14.670Z,5.10
2017-12-03T14:46:42.550Z,5.77
2017-12-03T14:49:10.759Z,5.17
2017-12-03T14:51:38.161Z,6.23
2017-12-03T14:54:05.577Z,5.23
2017-12-03T14:56:32.994Z,5.27
2017-12-03T14:59:01.174Z,6.37
2017-12-03T15:01:29.782Z,5.03
2017-12-03T15:03:57.195Z,5.73
2017-12-03T15:06:24.605Z,5.50
2017-12-03T15:08:52.010Z,6.70
2017-12-03T15:11:20.190Z,5.70
2017-12-03T15:13:48.356Z,5.67
2017-12-03T15:16:17.690Z,5.20
2017-12-03T15:18:45.104Z,4.93
2017-12-03T15:21:14.322Z,5.17
2017-12-03T15:23:42.533Z,4.87
2017-12-03T15:26:09.941Z,5.97
2017-12-03T15:28:38.117Z,4.60
2017-12-03T15:31:06.312Z,4.93
2017-12-03T15:33:34.514Z,5.67
2017-12-03T15:36:01.909Z,6.80
2017-12-03T15:38:30.830Z,4.77
2017-12-03T15:40:58.301Z,5.77
2017-12-03T15:43:25.772Z,4.67
2017-12-03T15:45:53.186Z,6.27
2017-12-03T15:48:21.349Z,5.20
2017-12-03T15:50:48.845Z,5.93
2017-12-03T15:53:16.305Z,8.70
2017-12-03T15:55:43.770Z,5.30
2017-12-03T15:58:11.227Z,7.57
2017-12-03T16:00:38.634Z,6.27
2017-12-03T16:03:06.818Z,5.80
2017-12-03T16:05:34.987Z,6.03
2017-12-03T16:08:02.692Z,7.17
2017-12-03T16:10:30.101Z,6.50
2017-12-03T16:12:57.601Z,5.40
2017-12-03T16:15:25.010Z,5.87
2017-12-03T16:17:52.413Z,6.60
2017-12-03T16:20:19.861Z,5.90
2017-12-03T16:22:47.278Z,6.40
2017-12-03T16:25:14.788Z,7.00
2017-12-03T16:27:42.209Z,6.93
2017-12-03T16:30:10.386Z,6.90
2017-12-03T16:32:38.578Z,6.17
2017-12-03T16:35:05.986Z,8.47
2017-12-03T16:37:34.385Z,7.97
2017-12-03T16:40:02.558Z,5.47
2017-12-03T16:42:30.734Z,9.80
2017-12-03T16:44:58.947Z,8.67
2017-12-03T16:47:26.357Z,7.57
2017-12-03T16:49:53.782Z,12.93
2017-12-03T16:52:21.206Z,9.37
2017-12-03T16:54:48.620Z,13.40
2017-12-03T16:57:16.803Z,10.37
2017-12-03T16:59:44.222Z,8.80
2017-12-03T17:02:11.639Z,10.13
2017-12-03T17:04:39.050Z,7.13
2017-12-03T17:07:07.187Z,7.97
2017-12-03T17:09:34.641Z,10.83
2017-12-03T17:12:02.059Z,10.77
2017-12-03T17:14:29.489Z,9.17
2017-12-03T17:16:56.913Z,15.73
2017-12-03T17:19:24.376Z,10.07
2017-12-03T17:21:51.789Z,12.57
2017-12-03T17:24:20.005Z,11.17
2017-12-03T17:26:47.422Z,20.60
2017-12-03T17:29:15.605Z,9.83
2017-12-03T17:31:43.022Z,9.63
2017-12-03T17:34:10.545Z,7.80
2017-12-03T17:36:37.953Z,9.83
2017-12-03T17:39:05.380Z,17.87
2017-12-03T17:41:32.794Z,8.80
2017-12-03T17:44:00.202Z,13.33
2017-12-03T17:46:27.727Z,8.90
2017-12-03T17:48:55.134Z,15.60
2017-12-03T17:51:22.557Z,10.80
2017-12-03T17:53:49.995Z,8.20
2017-12-03T17:56:17.403Z,8.33
2017-12-03T17:58:44.817Z,8.53
2017-12-03T18:01:12.231Z,9.17
2017-12-03T18:03:40.409Z,8.93
2017-12-03T18:06:08.616Z,7.70
2017-12-03T18:08:36.029Z,8.57
2017-12-03T18:11:04.204Z,9.40
2017-12-03T18:13:32.384Z,9.70
2017-12-03T18:16:00.569Z,11.83
2017-12-03T18:18:27.986Z,11.97
2017-12-03T18:20:55.396Z,13.17
2017-12-03T18:23:22.824Z,11.50
2017-12-03T18:25:51.002Z,11.30
2017-12-03T18:28:19.209Z,12.03
2017-12-03T18:30:46.613Z,12.73
2017-12-03T18:33:14.123Z,11.00
2017-12-03T18:35:41.526Z,11.10
2017-12-03T18:38:08.946Z,13.20
2017-12-03T18:40:36.362Z,10.10
2017-12-03T18:43:03.766Z,10.90
2017-12-03T18:45:31.185Z,8.40
2017-12-03T18:47:58.591Z,9.53
2017-12-03T18:50:25.997Z,9.27
2017-12-03T18:52:54.438Z,10.40
2017-12-03T18:55:21.856Z,11.40
2017-12-03T18:57:49.269Z,11.30
2017-12-03T19:00:17.452Z,10.13
2017-12-03T19:02:45.630Z,10.47
2017-12-03T19:05:13.046Z,9.83
2017-12-03T19:07:40.563Z,10.70
2017-12-03T19:10:08.009Z,9.37
2017-12-03T19:12:35.481Z,10.90
2017-12-03T19:15:02.893Z,9.30
2017-12-03T19:17:31.106Z,10.67
2017-12-03T19:19:58.523Z,9.87
2017-12-03T19:22:26.697Z,8.87
2017-12-03T19:24:54.877Z,10.20
2017-12-03T19:27:23.065Z,8.40
2017-12-03T19:29:50.469Z,10.73
2017-12-03T19:32:18.005Z,8.60
2017-12-03T19:34:45.382Z,9.47
2017-12-03T19:37:12.912Z,9.93
2017-12-03T19:39:40.317Z,10.20
2017-12-03T19:42:07.749Z,8.60
2017-12-03T19:44:35.153Z,8.27
2017-12-03T19:47:03.338Z,8.30
2017-12-03T19:49:30.746Z,7.53
2017-12-03T19:51:58.161Z,9.60
2017-12-03T19:54:25.574Z,8.60
2017-12-03T19:56:53.069Z,7.90
2017-12-03T19:59:20.486Z,8.70
2017-12-03T20:01:47.989Z,8.67
2017-12-03T20:04:15.401Z,7.03
2017-12-03T20:06:42.817Z,7.07
2017-12-03T20:09:10.233Z,6.97
2017-12-03T20:11:38.402Z,5.70
2017-12-03T20:14:07.513Z,6.23
2017-12-03T20:16:34.996Z,5.60
2017-12-03T20:19:02.406Z,7.70
2017-12-03T20:21:30.577Z,6.93
2017-12-03T20:23:58.782Z,8.00
2017-12-03T20:26:26.189Z,8.07
2017-12-03T20:28:53.701Z,7.93
2017-12-03T20:31:21.110Z,7.90
2017-12-03T20:33:48.530Z,7.60
2017-12-03T20:36:15.942Z,8.37
2017-12-03T20:38:44.122Z,7.70
2017-12-03T20:41:12.297Z,8.93
2017-12-03T20:43:39.708Z,6.87
2017-12-03T20:46:07.122Z,9.03
2017-12-03T20:48:34.585Z,8.40
2017-12-03T20:51:02.012Z,6.83
2017-12-03T20:53:29.414Z,8.47
2017-12-03T20:55:56.830Z,9.03
2017-12-03T20:58:25.031Z,6.50
2017-12-03T21:00:52.441Z,7.40
2017-12-03T21:03:19.851Z,7.30
2017-12-03T21:05:47.299Z,6.33
2017-12-03T21:08:14.701Z,6.67
2017-12-03T21:10:42.216Z,7.80
2017-12-03T21:13:09.621Z,7.10
2017-12-03T21:15:37.030Z,7.03
2017-12-03T21:18:04.477Z,6.20
2017-12-03T21:20:31.893Z,7.20
2017-12-03T21:23:00.041Z,6.70
2017-12-03T21:25:27.458Z,6.70
2017-12-03T21:27:54.857Z,6.63
2017-12-03T21:30:22.273Z,7.77
2017-12-03T21:32:49.685Z,6.87
2017-12-03T21:35:17.106Z,7.80
2017-12-03T21:37:44.517Z,7.87
2017-12-03T21:40:12.702Z,8.23
2017-12-03T21:42:40.105Z,8.37
2017-12-03T21:45:07.546Z,8.60
2017-12-03T21:47:34.968Z,7.30
2017-12-03T21:50:03.122Z,6.47
2017-12-03T21:52:31.323Z,7.23
2017-12-03T21:54:58.724Z,7.83
2017-12-03T21:57:26.142Z,7.77
2017-12-03T21:59:53.553Z,7.80
2017-12-03T22:02:20.965Z,6.93
2017-12-03T22:04:48.382Z,6.77
2017-12-03T22:07:16.566Z,6.77
2017-12-03T22:09:43.978Z,7.37
2017-12-03T22:12:11.400Z,6.40
2017-12-03T22:14:38.853Z,6.93
2017-12-03T22:17:06.276Z,6.40
2017-12-03T22:19:34.449Z,6.63
2017-12-03T22:22:02.636Z,8.00
2017-12-03T22:24:30.047Z,6.20
2017-12-03T22:26:57.466Z,8.50
2017-12-03T22:29:24.877Z,7.47
2017-12-03T22:31:52.290Z,7.10
2017-12-03T22:34:19.689Z,6.23
2017-12-03T22:36:47.102Z,7.73
2017-12-03T22:39:14.526Z,7.20
2017-12-03T22:41:42.697Z,6.83
2017-12-03T22:44:10.881Z,7.10
2017-12-03T22:46:38.293Z,7.63
2017-12-03T22:49:05.711Z,6.07
2017-12-03T22:51:33.121Z,8.20
2017-12-03T22:54:00.545Z,8.73
2017-12-03T22:56:27.954Z,7.07
2017-12-03T22:58:56.133Z,7.37
2017-12-03T23:01:23.547Z,9.70
2017-12-03T23:03:50.969Z,8.97
2017-12-03T23:06:19.138Z,9.50
2017-12-03T23:08:46.553Z,10.10
2017-12-03T23:11:14.725Z,7.40
2017-12-03T23:13:42.137Z,9.00
2017-12-03T23:16:09.550Z,7.50
2017-12-03T23:18:37.735Z,8.13
2017-12-03T23:21:05.145Z,7.00
2017-12-03T23:23:32.569Z,7.20
2017-12-03T23:25:59.981Z,8.30
2017-12-03T23:28:28.161Z,8.80
2017-12-03T23:30:56.346Z,11.03
2017-12-03T23:33:23.757Z,6.20
2017-12-03T23:35:51.187Z,9.20
2017-12-03T23:38:18.738Z,8.87
2017-12-03T23:40:46.162Z,10.60
2017-12-03T23:43:14.333Z,6.37
2017-12-03T23:45:42.525Z,10.20
2017-12-03T23:48:09.937Z,8.77
2017-12-03T23:50:37.360Z,9.37
2017-12-03T23:53:04.770Z,8.10
2017-12-03T23:55:32.196Z,7.60
2017-12-03T23:57:59.612Z,8.50
